sensor_id;sensor_type;location;lat;lon;timestamp;temperature;humidity
23289;DHT22;11813;50.834;4.280;2023-04-16T00:02:16;9.70;99.90
23289;DHT22;11813;50.834;4.280;2023-04-16T00:04:41;9.40;99.90
23289;DHT22;11813;50.834;4.280;2023-04-16T00:07:07;9.50;99.90
23289;DHT22;11813;50.834;4.280;2023-04-16T00:09:33;9.50;99.90
23289;DHT22;11813;50.834;4.280;2023-04-16T00:11:58;9.60;99.90
23289;DHT22;11813;50.834;4.280;2023-04-16T00:14:24;9.60;99.90
23289;DHT22;11813;50.834;4.280;2023-04-16T00:16:50;9.50;99.90
23289;DHT22;11813;50.834;4.280;2023-04-16T00:19:15;9.50;99.90
23289;DHT22;11813;50.834;4.280;2023-04-16T00:21:41;9.60;99.90
23289;DHT22;11813;50.834;4.280;2023-04-16T00:24:07;9.70;99.90
23289;DHT22;11813;50.834;4.280;2023-04-16T00:26:32;9.70;99.90
23289;DHT22;11813;50.834;4.280;2023-04-16T00:28:59;9.70;99.90
23289;DHT22;11813;50.834;4.280;2023-04-16T00:31:30;9.60;99.90
23289;DHT22;11813;50.834;4.280;2023-04-16T00:33:56;9.60;99.90
23289;DHT22;11813;50.834;4.280;2023-04-16T00:36:23;9.40;99.90
23289;DHT22;11813;50.834;4.280;2023-04-16T00:38:49;9.40;99.90
23289;DHT22;11813;50.834;4.280;2023-04-16T00:41:15;9.40;99.90
23289;DHT22;11813;50.834;4.280;2023-04-16T00:43:41;9.40;99.90
23289;DHT22;11813;50.834;4.280;2023-04-16T00:46:07;9.40;99.90
23289;DHT22;11813;50.834;4.280;2023-04-16T00:48:34;9.40;99.90
23289;DHT22;11813;50.834;4.280;2023-04-16T00:51:02;9.40;99.90
23289;DHT22;11813;50.834;4.280;2023-04-16T00:53:28;9.40;99.90
23289;DHT22;11813;50.834;4.280;2023-04-16T00:55:54;9.40;99.90
23289;DHT22;11813;50.834;4.280;2023-04-16T00:58:22;9.40;99.90
23289;DHT22;11813;50.834;4.280;2023-04-16T01:00:48;9.30;99.90
23289;DHT22;11813;50.834;4.280;2023-04-16T01:03:13;9.30;99.90
23289;DHT22;11813;50.834;4.280;2023-04-16T01:05:39;9.40;99.90
23289;DHT22;11813;50.834;4.280;2023-04-16T01:08:05;9.40;99.90
23289;DHT22;11813;50.834;4.280;2023-04-16T01:10:30;9.40;99.90
23289;DHT22;11813;50.834;4.280;2023-04-16T01:12:56;9.40;99.90
23289;DHT22;11813;50.834;4.280;2023-04-16T01:15:21;9.40;99.90
23289;DHT22;11813;50.834;4.280;2023-04-16T01:17:47;9.40;99.90
23289;DHT22;11813;50.834;4.280;2023-04-16T01:20:13;9.40;99.90
23289;DHT22;11813;50.834;4.280;2023-04-16T01:22:38;9.50;99.90
23289;DHT22;11813;50.834;4.280;2023-04-16T01:25:04;9.40;99.90
23289;DHT22;11813;50.834;4.280;2023-04-16T01:27:30;9.50;99.90
23289;DHT22;11813;50.834;4.280;2023-04-16T01:29:56;9.50;99.90
23289;DHT22;11813;50.834;4.280;2023-04-16T01:32:22;9.50;99.90
23289;DHT22;11813;50.834;4.280;2023-04-16T01:34:48;9.30;99.90
23289;DHT22;11813;50.834;4.280;2023-04-16T01:37:13;9.30;99.90
23289;DHT22;11813;50.834;4.280;2023-04-16T01:39:39;9.30;99.90
23289;DHT22;11813;50.834;4.280;2023-04-16T01:42:04;9.40;99.90
23289;DHT22;11813;50.834;4.280;2023-04-16T01:44:30;9.30;99.90
23289;DHT22;11813;50.834;4.280;2023-04-16T01:46:56;9.30;99.90
23289;DHT22;11813;50.834;4.280;2023-04-16T01:49:21;9.20;99.90
23289;DHT22;11813;50.834;4.280;2023-04-16T01:51:47;9.30;99.90
23289;DHT22;11813;50.834;4.280;2023-04-16T01:54:13;9.20;99.90
23289;DHT22;11813;50.834;4.280;2023-04-16T01:56:38;9.20;99.90
23289;DHT22;11813;50.834;4.280;2023-04-16T01:59:04;9.30;99.90
23289;DHT22;11813;50.834;4.280;2023-04-16T02:01:29;9.30;99.90
23289;DHT22;11813;50.834;4.280;2023-04-16T02:03:56;9.30;99.90
23289;DHT22;11813;50.834;4.280;2023-04-16T02:06:21;9.30;99.90
23289;DHT22;11813;50.834;4.280;2023-04-16T02:08:47;9.10;99.90
23289;DHT22;11813;50.834;4.280;2023-04-16T02:11:13;9.10;99.90
23289;DHT22;11813;50.834;4.280;2023-04-16T02:13:38;9.10;99.90
23289;DHT22;11813;50.834;4.280;2023-04-16T02:16:04;9.20;99.90
23289;DHT22;11813;50.834;4.280;2023-04-16T02:18:30;9.20;99.90
23289;DHT22;11813;50.834;4.280;2023-04-16T02:20:57;9.20;99.90
23289;DHT22;11813;50.834;4.280;2023-04-16T02:23:23;9.10;99.90
23289;DHT22;11813;50.834;4.280;2023-04-16T02:25:49;9.10;99.90
23289;DHT22;11813;50.834;4.280;2023-04-16T02:28:15;9.00;99.90
23289;DHT22;11813;50.834;4.280;2023-04-16T02:30:42;9.00;99.90
23289;DHT22;11813;50.834;4.280;2023-04-16T02:33:09;9.10;99.90
23289;DHT22;11813;50.834;4.280;2023-04-16T02:35:36;9.00;99.90
23289;DHT22;11813;50.834;4.280;2023-04-16T02:38:03;9.10;99.90
23289;DHT22;11813;50.834;4.280;2023-04-16T02:40:29;9.20;99.90
23289;DHT22;11813;50.834;4.280;2023-04-16T02:42:55;9.20;99.90
23289;DHT22;11813;50.834;4.280;2023-04-16T02:45:21;9.30;99.90
23289;DHT22;11813;50.834;4.280;2023-04-16T02:47:48;9.40;99.90
23289;DHT22;11813;50.834;4.280;2023-04-16T02:50:14;9.40;99.90
23289;DHT22;11813;50.834;4.280;2023-04-16T02:52:39;9.30;99.90
23289;DHT22;11813;50.834;4.280;2023-04-16T02:55:05;9.30;99.90
23289;DHT22;11813;50.834;4.280;2023-04-16T02:57:31;9.30;99.90
23289;DHT22;11813;50.834;4.280;2023-04-16T02:59:57;9.40;99.90
23289;DHT22;11813;50.834;4.280;2023-04-16T03:02:22;9.40;99.90
23289;DHT22;11813;50.834;4.280;2023-04-16T03:04:48;9.40;99.90
23289;DHT22;11813;50.834;4.280;2023-04-16T03:07:14;9.30;99.90
23289;DHT22;11813;50.834;4.280;2023-04-16T03:09:39;9.40;99.90
23289;DHT22;11813;50.834;4.280;2023-04-16T03:12:05;9.40;99.90
23289;DHT22;11813;50.834;4.280;2023-04-16T03:14:30;9.40;99.90
23289;DHT22;11813;50.834;4.280;2023-04-16T03:16:57;9.50;99.90
23289;DHT22;11813;50.834;4.280;2023-04-16T03:19:22;9.50;99.90
23289;DHT22;11813;50.834;4.280;2023-04-16T03:21:48;9.50;99.90
23289;DHT22;11813;50.834;4.280;2023-04-16T03:24:13;9.40;99.90
23289;DHT22;11813;50.834;4.280;2023-04-16T03:26:39;9.50;99.90
23289;DHT22;11813;50.834;4.280;2023-04-16T03:29:05;9.40;99.90
23289;DHT22;11813;50.834;4.280;2023-04-16T03:31:30;9.40;99.90
23289;DHT22;11813;50.834;4.280;2023-04-16T03:33:56;9.50;99.90
23289;DHT22;11813;50.834;4.280;2023-04-16T03:36:21;9.40;99.90
23289;DHT22;11813;50.834;4.280;2023-04-16T03:38:48;9.50;99.90
23289;DHT22;11813;50.834;4.280;2023-04-16T03:41:13;9.40;99.90
23289;DHT22;11813;50.834;4.280;2023-04-16T03:43:39;9.60;99.90
23289;DHT22;11813;50.834;4.280;2023-04-16T03:46:04;9.50;99.90
23289;DHT22;11813;50.834;4.280;2023-04-16T03:48:30;9.60;99.90
23289;DHT22;11813;50.834;4.280;2023-04-16T03:50:55;9.50;99.90
23289;DHT22;11813;50.834;4.280;2023-04-16T03:53:21;9.50;99.90
23289;DHT22;11813;50.834;4.280;2023-04-16T03:55:49;9.40;99.90
23289;DHT22;11813;50.834;4.280;2023-04-16T03:58:18;9.40;99.90
23289;DHT22;11813;50.834;4.280;2023-04-16T04:00:44;9.30;99.90
23289;DHT22;11813;50.834;4.280;2023-04-16T04:03:10;9.30;99.90
23289;DHT22;11813;50.834;4.280;2023-04-16T04:05:37;9.30;99.90
23289;DHT22;11813;50.834;4.280;2023-04-16T04:08:03;9.30;99.90
23289;DHT22;11813;50.834;4.280;2023-04-16T04:10:31;9.40;99.90
23289;DHT22;11813;50.834;4.280;2023-04-16T04:12:57;9.30;99.90
23289;DHT22;11813;50.834;4.280;2023-04-16T04:15:22;9.40;99.90
23289;DHT22;11813;50.834;4.280;2023-04-16T04:17:48;9.40;99.90
23289;DHT22;11813;50.834;4.280;2023-04-16T04:20:14;9.40;99.90
23289;DHT22;11813;50.834;4.280;2023-04-16T04:22:39;9.40;99.90
23289;DHT22;11813;50.834;4.280;2023-04-16T04:25:05;9.40;99.90
23289;DHT22;11813;50.834;4.280;2023-04-16T04:27:31;9.40;99.90
23289;DHT22;11813;50.834;4.280;2023-04-16T04:29:56;9.50;99.90
23289;DHT22;11813;50.834;4.280;2023-04-16T04:32:22;9.60;99.90
23289;DHT22;11813;50.834;4.280;2023-04-16T04:34:48;9.40;99.90
23289;DHT22;11813;50.834;4.280;2023-04-16T04:37:13;9.40;99.90
23289;DHT22;11813;50.834;4.280;2023-04-16T04:39:39;9.30;99.90
23289;DHT22;11813;50.834;4.280;2023-04-16T04:42:04;9.40;99.90
23289;DHT22;11813;50.834;4.280;2023-04-16T04:44:30;9.40;99.90
23289;DHT22;11813;50.834;4.280;2023-04-16T04:46:55;9.40;99.90
23289;DHT22;11813;50.834;4.280;2023-04-16T04:49:21;9.50;99.90
23289;DHT22;11813;50.834;4.280;2023-04-16T04:51:47;9.40;99.90
23289;DHT22;11813;50.834;4.280;2023-04-16T04:54:13;9.50;99.90
23289;DHT22;11813;50.834;4.280;2023-04-16T04:56:38;9.50;99.90
23289;DHT22;11813;50.834;4.280;2023-04-16T04:59:04;9.40;99.90
23289;DHT22;11813;50.834;4.280;2023-04-16T05:01:29;9.40;99.90
23289;DHT22;11813;50.834;4.280;2023-04-16T05:03:55;9.40;99.90
23289;DHT22;11813;50.834;4.280;2023-04-16T05:06:21;9.50;99.90
23289;DHT22;11813;50.834;4.280;2023-04-16T05:08:46;9.60;99.90
23289;DHT22;11813;50.834;4.280;2023-04-16T05:11:12;9.70;99.90
23289;DHT22;11813;50.834;4.280;2023-04-16T05:13:37;9.60;99.90
23289;DHT22;11813;50.834;4.280;2023-04-16T05:16:03;9.60;99.90
23289;DHT22;11813;50.834;4.280;2023-04-16T05:18:29;9.60;99.90
23289;DHT22;11813;50.834;4.280;2023-04-16T05:20:55;9.50;99.90
23289;DHT22;11813;50.834;4.280;2023-04-16T05:23:20;9.50;99.90
23289;DHT22;11813;50.834;4.280;2023-04-16T05:25:46;9.60;99.90
23289;DHT22;11813;50.834;4.280;2023-04-16T05:28:11;9.60;99.90
23289;DHT22;11813;50.834;4.280;2023-04-16T05:30:37;9.60;99.90
23289;DHT22;11813;50.834;4.280;2023-04-16T05:33:03;9.60;99.90
23289;DHT22;11813;50.834;4.280;2023-04-16T05:35:28;9.70;99.90
23289;DHT22;11813;50.834;4.280;2023-04-16T05:37:54;9.70;99.90
23289;DHT22;11813;50.834;4.280;2023-04-16T05:40:19;9.70;99.90
23289;DHT22;11813;50.834;4.280;2023-04-16T05:42:45;9.70;99.90
23289;DHT22;11813;50.834;4.280;2023-04-16T05:45:11;9.50;99.90
23289;DHT22;11813;50.834;4.280;2023-04-16T05:47:36;9.40;99.90
23289;DHT22;11813;50.834;4.280;2023-04-16T05:50:02;9.40;99.90
23289;DHT22;11813;50.834;4.280;2023-04-16T05:52:27;9.50;99.90
23289;DHT22;11813;50.834;4.280;2023-04-16T05:54:53;9.60;99.90
23289;DHT22;11813;50.834;4.280;2023-04-16T05:57:18;9.60;99.90
23289;DHT22;11813;50.834;4.280;2023-04-16T05:59:44;9.60;99.90
23289;DHT22;11813;50.834;4.280;2023-04-16T06:02:09;9.70;99.90
23289;DHT22;11813;50.834;4.280;2023-04-16T06:04:35;9.60;99.90
23289;DHT22;11813;50.834;4.280;2023-04-16T06:07:01;9.50;99.90
23289;DHT22;11813;50.834;4.280;2023-04-16T06:09:27;9.30;99.90
23289;DHT22;11813;50.834;4.280;2023-04-16T06:11:52;9.40;99.90
23289;DHT22;11813;50.834;4.280;2023-04-16T06:14:18;9.40;99.90
23289;DHT22;11813;50.834;4.280;2023-04-16T06:16:43;9.30;99.90
23289;DHT22;11813;50.834;4.280;2023-04-16T06:19:09;9.40;99.90
23289;DHT22;11813;50.834;4.280;2023-04-16T06:21:35;9.40;99.90
23289;DHT22;11813;50.834;4.280;2023-04-16T06:24:02;9.40;99.90
23289;DHT22;11813;50.834;4.280;2023-04-16T06:26:27;9.40;99.90
23289;DHT22;11813;50.834;4.280;2023-04-16T06:28:53;9.50;99.90
23289;DHT22;11813;50.834;4.280;2023-04-16T06:31:18;9.50;99.90
23289;DHT22;11813;50.834;4.280;2023-04-16T06:33:44;9.60;99.90
23289;DHT22;11813;50.834;4.280;2023-04-16T06:36:10;9.50;99.90
23289;DHT22;11813;50.834;4.280;2023-04-16T06:38:36;9.40;99.90
23289;DHT22;11813;50.834;4.280;2023-04-16T06:41:02;9.40;99.90
23289;DHT22;11813;50.834;4.280;2023-04-16T06:43:28;9.40;99.90
23289;DHT22;11813;50.834;4.280;2023-04-16T06:45:54;9.30;99.90
23289;DHT22;11813;50.834;4.280;2023-04-16T06:48:20;9.30;99.90
23289;DHT22;11813;50.834;4.280;2023-04-16T06:50:45;9.40;99.90
23289;DHT22;11813;50.834;4.280;2023-04-16T06:53:11;9.50;99.90
23289;DHT22;11813;50.834;4.280;2023-04-16T06:55:36;9.40;99.90
23289;DHT22;11813;50.834;4.280;2023-04-16T06:58:02;9.50;99.90
23289;DHT22;11813;50.834;4.280;2023-04-16T07:00:28;9.60;99.90
23289;DHT22;11813;50.834;4.280;2023-04-16T07:02:53;9.50;99.90
23289;DHT22;11813;50.834;4.280;2023-04-16T07:05:19;9.50;99.90
23289;DHT22;11813;50.834;4.280;2023-04-16T07:07:44;9.50;99.90
23289;DHT22;11813;50.834;4.280;2023-04-16T07:10:10;9.60;99.90
23289;DHT22;11813;50.834;4.280;2023-04-16T07:12:35;9.60;99.90
23289;DHT22;11813;50.834;4.280;2023-04-16T07:15:01;9.50;99.90
23289;DHT22;11813;50.834;4.280;2023-04-16T07:17:27;9.50;99.90
23289;DHT22;11813;50.834;4.280;2023-04-16T07:19:52;9.60;99.90
23289;DHT22;11813;50.834;4.280;2023-04-16T07:22:19;9.60;99.90
23289;DHT22;11813;50.834;4.280;2023-04-16T07:24:44;9.70;99.90
23289;DHT22;11813;50.834;4.280;2023-04-16T07:27:10;9.70;99.90
23289;DHT22;11813;50.834;4.280;2023-04-16T07:29:36;9.80;99.90
23289;DHT22;11813;50.834;4.280;2023-04-16T07:32:01;9.70;99.90
23289;DHT22;11813;50.834;4.280;2023-04-16T07:34:27;9.70;99.90
23289;DHT22;11813;50.834;4.280;2023-04-16T07:36:52;9.70;99.90
23289;DHT22;11813;50.834;4.280;2023-04-16T07:39:18;9.70;99.90
23289;DHT22;11813;50.834;4.280;2023-04-16T07:41:43;9.70;99.90
23289;DHT22;11813;50.834;4.280;2023-04-16T07:44:09;9.70;99.90
23289;DHT22;11813;50.834;4.280;2023-04-16T07:46:35;9.70;99.90
23289;DHT22;11813;50.834;4.280;2023-04-16T07:49:00;9.80;99.90
23289;DHT22;11813;50.834;4.280;2023-04-16T07:51:26;9.90;99.90
23289;DHT22;11813;50.834;4.280;2023-04-16T07:53:52;9.90;99.90
23289;DHT22;11813;50.834;4.280;2023-04-16T07:56:17;10.00;99.90
23289;DHT22;11813;50.834;4.280;2023-04-16T07:58:43;10.00;99.90
23289;DHT22;11813;50.834;4.280;2023-04-16T08:01:08;10.10;99.90
23289;DHT22;11813;50.834;4.280;2023-04-16T08:03:34;10.10;99.90
23289;DHT22;11813;50.834;4.280;2023-04-16T08:06:00;10.20;99.90
23289;DHT22;11813;50.834;4.280;2023-04-16T08:08:25;10.10;99.90
23289;DHT22;11813;50.834;4.280;2023-04-16T08:10:51;10.10;99.90
23289;DHT22;11813;50.834;4.280;2023-04-16T08:13:23;10.00;99.90
23289;DHT22;11813;50.834;4.280;2023-04-16T08:15:49;10.10;99.90
23289;DHT22;11813;50.834;4.280;2023-04-16T08:18:14;10.10;99.90
23289;DHT22;11813;50.834;4.280;2023-04-16T08:20:41;10.20;99.90
23289;DHT22;11813;50.834;4.280;2023-04-16T08:23:07;10.10;99.90
23289;DHT22;11813;50.834;4.280;2023-04-16T08:25:32;10.00;99.90
23289;DHT22;11813;50.834;4.280;2023-04-16T08:27:58;9.90;99.90
23289;DHT22;11813;50.834;4.280;2023-04-16T08:30:23;10.00;99.90
23289;DHT22;11813;50.834;4.280;2023-04-16T08:32:49;10.00;99.90
23289;DHT22;11813;50.834;4.280;2023-04-16T08:35:15;9.90;99.90
23289;DHT22;11813;50.834;4.280;2023-04-16T08:37:41;10.00;99.90
23289;DHT22;11813;50.834;4.280;2023-04-16T08:40:07;10.00;99.90
23289;DHT22;11813;50.834;4.280;2023-04-16T08:42:53;10.00;99.90
23289;DHT22;11813;50.834;4.280;2023-04-16T08:45:25;9.90;99.90
23289;DHT22;11813;50.834;4.280;2023-04-16T08:47:52;10.10;99.90
23289;DHT22;11813;50.834;4.280;2023-04-16T08:50:25;10.10;99.90
23289;DHT22;11813;50.834;4.280;2023-04-16T08:52:58;10.10;99.90
23289;DHT22;11813;50.834;4.280;2023-04-16T08:55:54;10.30;99.90
23289;DHT22;11813;50.834;4.280;2023-04-16T08:58:21;10.30;99.90
23289;DHT22;11813;50.834;4.280;2023-04-16T09:00:48;10.20;99.90
23289;DHT22;11813;50.834;4.280;2023-04-16T09:03:14;10.10;99.90
23289;DHT22;11813;50.834;4.280;2023-04-16T09:05:41;10.10;99.90
23289;DHT22;11813;50.834;4.280;2023-04-16T09:08:07;10.10;99.90
23289;DHT22;11813;50.834;4.280;2023-04-16T09:10:33;10.10;99.90
23289;DHT22;11813;50.834;4.280;2023-04-16T09:12:59;10.20;99.90
23289;DHT22;11813;50.834;4.280;2023-04-16T09:15:25;10.20;99.90
23289;DHT22;11813;50.834;4.280;2023-04-16T09:17:51;10.20;99.90
23289;DHT22;11813;50.834;4.280;2023-04-16T09:20:17;10.20;99.90
23289;DHT22;11813;50.834;4.280;2023-04-16T09:22:43;10.10;99.90
23289;DHT22;11813;50.834;4.280;2023-04-16T09:25:09;10.10;99.90
23289;DHT22;11813;50.834;4.280;2023-04-16T09:27:35;10.30;99.90
23289;DHT22;11813;50.834;4.280;2023-04-16T09:30:26;10.40;99.90
23289;DHT22;11813;50.834;4.280;2023-04-16T09:33:15;10.40;99.90
23289;DHT22;11813;50.834;4.280;2023-04-16T09:35:58;10.60;99.90
23289;DHT22;11813;50.834;4.280;2023-04-16T09:38:24;10.70;99.90
23289;DHT22;11813;50.834;4.280;2023-04-16T09:41:05;10.70;99.90
23289;DHT22;11813;50.834;4.280;2023-04-16T09:43:31;10.70;99.90
23289;DHT22;11813;50.834;4.280;2023-04-16T09:45:57;10.80;99.90
23289;DHT22;11813;50.834;4.280;2023-04-16T09:48:29;10.70;99.90
23289;DHT22;11813;50.834;4.280;2023-04-16T09:50:55;10.70;99.90
23289;DHT22;11813;50.834;4.280;2023-04-16T09:53:28;10.60;99.90
23289;DHT22;11813;50.834;4.280;2023-04-16T09:58:23;10.50;99.90
23289;DHT22;11813;50.834;4.280;2023-04-16T10:01:10;10.50;99.90
23289;DHT22;11813;50.834;4.280;2023-04-16T10:03:38;10.70;99.90
23289;DHT22;11813;50.834;4.280;2023-04-16T10:06:13;10.80;99.90
23289;DHT22;11813;50.834;4.280;2023-04-16T10:08:43;10.80;99.90
23289;DHT22;11813;50.834;4.280;2023-04-16T10:11:09;10.80;99.90
23289;DHT22;11813;50.834;4.280;2023-04-16T10:13:35;10.80;99.90
23289;DHT22;11813;50.834;4.280;2023-04-16T10:16:02;10.70;99.90
23289;DHT22;11813;50.834;4.280;2023-04-16T10:18:28;10.60;99.90
23289;DHT22;11813;50.834;4.280;2023-04-16T10:20:54;10.60;99.90
23289;DHT22;11813;50.834;4.280;2023-04-16T10:23:20;10.60;99.90
23289;DHT22;11813;50.834;4.280;2023-04-16T10:25:50;10.70;99.90
23289;DHT22;11813;50.834;4.280;2023-04-16T10:28:16;10.70;99.90
23289;DHT22;11813;50.834;4.280;2023-04-16T10:30:44;10.80;99.90
23289;DHT22;11813;50.834;4.280;2023-04-16T10:33:21;10.80;99.90
23289;DHT22;11813;50.834;4.280;2023-04-16T10:35:49;10.80;99.90
23289;DHT22;11813;50.834;4.280;2023-04-16T10:38:24;10.80;99.90
23289;DHT22;11813;50.834;4.280;2023-04-16T10:41:03;10.90;99.90
23289;DHT22;11813;50.834;4.280;2023-04-16T10:43:32;10.90;99.90
23289;DHT22;11813;50.834;4.280;2023-04-16T10:48:41;10.80;99.90
23289;DHT22;11813;50.834;4.280;2023-04-16T10:51:07;10.90;99.90
23289;DHT22;11813;50.834;4.280;2023-04-16T10:53:47;10.90;99.90
23289;DHT22;11813;50.834;4.280;2023-04-16T10:56:12;10.90;99.90
23289;DHT22;11813;50.834;4.280;2023-04-16T10:58:38;10.90;99.90
23289;DHT22;11813;50.834;4.280;2023-04-16T11:01:10;10.80;99.90
23289;DHT22;11813;50.834;4.280;2023-04-16T11:03:45;10.80;99.90
23289;DHT22;11813;50.834;4.280;2023-04-16T11:06:16;10.70;99.90
23289;DHT22;11813;50.834;4.280;2023-04-16T11:08:45;10.90;99.90
23289;DHT22;11813;50.834;4.280;2023-04-16T11:11:12;10.90;99.90
23289;DHT22;11813;50.834;4.280;2023-04-16T11:13:42;11.00;99.90
23289;DHT22;11813;50.834;4.280;2023-04-16T11:16:09;11.00;99.90
23289;DHT22;11813;50.834;4.280;2023-04-16T11:18:35;11.10;99.90
23289;DHT22;11813;50.834;4.280;2023-04-16T11:21:01;11.00;99.90
23289;DHT22;11813;50.834;4.280;2023-04-16T11:23:26;10.90;99.90
23289;DHT22;11813;50.834;4.280;2023-04-16T11:25:53;10.70;99.90
23289;DHT22;11813;50.834;4.280;2023-04-16T11:28:31;10.80;99.90
23289;DHT22;11813;50.834;4.280;2023-04-16T11:30:57;10.80;99.90
23289;DHT22;11813;50.834;4.280;2023-04-16T11:33:24;10.90;99.90
23289;DHT22;11813;50.834;4.280;2023-04-16T11:35:56;10.80;99.90
23289;DHT22;11813;50.834;4.280;2023-04-16T11:38:37;10.90;99.90
23289;DHT22;11813;50.834;4.280;2023-04-16T11:41:05;10.80;99.90
23289;DHT22;11813;50.834;4.280;2023-04-16T11:43:31;10.70;99.90
23289;DHT22;11813;50.834;4.280;2023-04-16T11:46:02;10.90;99.90
23289;DHT22;11813;50.834;4.280;2023-04-16T11:48:50;10.90;99.90
23289;DHT22;11813;50.834;4.280;2023-04-16T11:51:17;10.80;99.90
23289;DHT22;11813;50.834;4.280;2023-04-16T11:53:47;10.90;99.90
23289;DHT22;11813;50.834;4.280;2023-04-16T11:56:13;10.80;99.90
23289;DHT22;11813;50.834;4.280;2023-04-16T11:58:38;10.80;99.90
23289;DHT22;11813;50.834;4.280;2023-04-16T12:01:05;10.80;99.90
23289;DHT22;11813;50.834;4.280;2023-04-16T12:03:41;10.90;99.90
23289;DHT22;11813;50.834;4.280;2023-04-16T12:06:10;10.90;99.90
23289;DHT22;11813;50.834;4.280;2023-04-16T12:08:36;10.90;99.90
23289;DHT22;11813;50.834;4.280;2023-04-16T12:11:02;10.90;99.90
23289;DHT22;11813;50.834;4.280;2023-04-16T12:13:27;10.90;99.90
23289;DHT22;11813;50.834;4.280;2023-04-16T12:15:54;11.00;99.90
23289;DHT22;11813;50.834;4.280;2023-04-16T12:18:22;11.10;99.90
23289;DHT22;11813;50.834;4.280;2023-04-16T12:20:48;11.10;99.90
23289;DHT22;11813;50.834;4.280;2023-04-16T12:23:29;11.20;99.90
23289;DHT22;11813;50.834;4.280;2023-04-16T12:25:56;11.10;99.90
23289;DHT22;11813;50.834;4.280;2023-04-16T12:28:33;11.00;99.90
23289;DHT22;11813;50.834;4.280;2023-04-16T12:31:00;11.00;99.90
23289;DHT22;11813;50.834;4.280;2023-04-16T12:33:26;11.00;99.90
23289;DHT22;11813;50.834;4.280;2023-04-16T12:35:51;11.00;99.90
23289;DHT22;11813;50.834;4.280;2023-04-16T12:38:17;11.20;99.90
23289;DHT22;11813;50.834;4.280;2023-04-16T12:40:43;11.30;99.90
23289;DHT22;11813;50.834;4.280;2023-04-16T12:43:09;11.20;99.90
23289;DHT22;11813;50.834;4.280;2023-04-16T12:45:35;11.30;99.90
23289;DHT22;11813;50.834;4.280;2023-04-16T12:48:01;11.20;99.90
23289;DHT22;11813;50.834;4.280;2023-04-16T12:50:26;11.30;99.90
23289;DHT22;11813;50.834;4.280;2023-04-16T12:52:55;11.30;99.90
23289;DHT22;11813;50.834;4.280;2023-04-16T12:55:21;11.40;99.90
23289;DHT22;11813;50.834;4.280;2023-04-16T12:57:47;11.30;99.90
23289;DHT22;11813;50.834;4.280;2023-04-16T13:00:14;11.40;99.90
23289;DHT22;11813;50.834;4.280;2023-04-16T13:02:40;11.40;99.90
23289;DHT22;11813;50.834;4.280;2023-04-16T13:05:06;11.30;99.90
23289;DHT22;11813;50.834;4.280;2023-04-16T13:07:32;11.40;99.90
23289;DHT22;11813;50.834;4.280;2023-04-16T13:09:59;11.40;99.90
23289;DHT22;11813;50.834;4.280;2023-04-16T13:12:24;11.50;99.90
23289;DHT22;11813;50.834;4.280;2023-04-16T13:14:51;11.50;99.90
23289;DHT22;11813;50.834;4.280;2023-04-16T13:17:17;11.50;99.90
23289;DHT22;11813;50.834;4.280;2023-04-16T13:19:42;11.60;99.90
23289;DHT22;11813;50.834;4.280;2023-04-16T13:22:08;11.70;99.90
23289;DHT22;11813;50.834;4.280;2023-04-16T13:24:34;11.80;99.90
23289;DHT22;11813;50.834;4.280;2023-04-16T13:26:59;11.70;99.90
23289;DHT22;11813;50.834;4.280;2023-04-16T13:29:25;11.70;99.90
23289;DHT22;11813;50.834;4.280;2023-04-16T13:31:51;11.70;99.90
23289;DHT22;11813;50.834;4.280;2023-04-16T13:34:17;11.80;99.90
23289;DHT22;11813;50.834;4.280;2023-04-16T13:36:42;11.90;99.90
23289;DHT22;11813;50.834;4.280;2023-04-16T13:39:08;12.20;99.90
23289;DHT22;11813;50.834;4.280;2023-04-16T13:41:37;12.30;99.90
23289;DHT22;11813;50.834;4.280;2023-04-16T13:44:03;12.40;99.90
23289;DHT22;11813;50.834;4.280;2023-04-16T13:46:28;12.50;99.90
23289;DHT22;11813;50.834;4.280;2023-04-16T13:48:54;12.50;99.90
23289;DHT22;11813;50.834;4.280;2023-04-16T13:51:20;12.50;99.90
23289;DHT22;11813;50.834;4.280;2023-04-16T13:53:46;12.30;99.90
23289;DHT22;11813;50.834;4.280;2023-04-16T13:56:11;12.30;99.90
23289;DHT22;11813;50.834;4.280;2023-04-16T13:58:37;12.30;99.90
23289;DHT22;11813;50.834;4.280;2023-04-16T14:01:03;12.30;99.90
23289;DHT22;11813;50.834;4.280;2023-04-16T14:03:28;12.30;99.90
23289;DHT22;11813;50.834;4.280;2023-04-16T14:05:54;12.20;99.90
23289;DHT22;11813;50.834;4.280;2023-04-16T14:08:20;12.20;99.90
23289;DHT22;11813;50.834;4.280;2023-04-16T14:10:46;12.20;99.90
23289;DHT22;11813;50.834;4.280;2023-04-16T14:13:12;12.30;99.90
23289;DHT22;11813;50.834;4.280;2023-04-16T14:15:38;12.30;99.90
23289;DHT22;11813;50.834;4.280;2023-04-16T14:18:03;12.30;99.90
23289;DHT22;11813;50.834;4.280;2023-04-16T14:20:29;12.20;99.90
23289;DHT22;11813;50.834;4.280;2023-04-16T14:22:55;12.30;99.90
23289;DHT22;11813;50.834;4.280;2023-04-16T14:25:20;12.30;99.90
23289;DHT22;11813;50.834;4.280;2023-04-16T14:27:46;12.30;99.90
23289;DHT22;11813;50.834;4.280;2023-04-16T14:30:11;12.40;99.90
23289;DHT22;11813;50.834;4.280;2023-04-16T14:32:37;12.40;99.90
23289;DHT22;11813;50.834;4.280;2023-04-16T14:35:03;12.40;99.90
23289;DHT22;11813;50.834;4.280;2023-04-16T14:37:29;12.40;99.90
23289;DHT22;11813;50.834;4.280;2023-04-16T14:39:55;12.40;99.90
23289;DHT22;11813;50.834;4.280;2023-04-16T14:42:20;12.40;99.90
23289;DHT22;11813;50.834;4.280;2023-04-16T14:44:47;12.50;99.90
23289;DHT22;11813;50.834;4.280;2023-04-16T14:47:12;12.70;99.90
23289;DHT22;11813;50.834;4.280;2023-04-16T14:49:38;12.70;99.90
23289;DHT22;11813;50.834;4.280;2023-04-16T14:52:04;12.90;99.90
23289;DHT22;11813;50.834;4.280;2023-04-16T14:54:31;12.80;99.90
23289;DHT22;11813;50.834;4.280;2023-04-16T14:56:57;12.90;99.90
23289;DHT22;11813;50.834;4.280;2023-04-16T14:59:23;12.80;99.90
23289;DHT22;11813;50.834;4.280;2023-04-16T15:01:49;12.60;99.90
23289;DHT22;11813;50.834;4.280;2023-04-16T15:04:15;12.60;99.90
23289;DHT22;11813;50.834;4.280;2023-04-16T15:06:41;12.60;99.90
23289;DHT22;11813;50.834;4.280;2023-04-16T15:09:06;12.70;99.90
23289;DHT22;11813;50.834;4.280;2023-04-16T15:11:32;12.70;99.90
23289;DHT22;11813;50.834;4.280;2023-04-16T15:13:58;12.60;99.90
23289;DHT22;11813;50.834;4.280;2023-04-16T15:16:23;12.60;99.90
23289;DHT22;11813;50.834;4.280;2023-04-16T15:18:49;12.60;99.90
23289;DHT22;11813;50.834;4.280;2023-04-16T15:21:15;12.50;99.90
23289;DHT22;11813;50.834;4.280;2023-04-16T15:23:40;12.60;99.90
23289;DHT22;11813;50.834;4.280;2023-04-16T15:26:06;12.60;99.90
23289;DHT22;11813;50.834;4.280;2023-04-16T15:28:32;12.70;99.90
23289;DHT22;11813;50.834;4.280;2023-04-16T15:30:57;12.70;99.90
23289;DHT22;11813;50.834;4.280;2023-04-16T15:33:23;12.80;99.90
23289;DHT22;11813;50.834;4.280;2023-04-16T15:35:49;12.80;99.90
23289;DHT22;11813;50.834;4.280;2023-04-16T15:38:16;12.90;99.90
23289;DHT22;11813;50.834;4.280;2023-04-16T15:40:42;12.70;99.90